createdAt,value
2016-07-18T00:01:06.357Z,15.8
2016-07-18T00:16:16.739Z,15.7
2016-07-18T00:31:23.429Z,15.6
2016-07-18T00:46:06.390Z,15.5
2016-07-18T01:01:11.351Z,15.4
2016-07-18T01:16:17.611Z,15.3
2016-07-18T01:31:18.850Z,15.2
2016-07-18T01:46:11.462Z,15.1
2016-07-18T02:01:06.421Z,15
2016-07-18T02:16:06.429Z,14.8
2016-07-18T02:31:08.573Z,14.8
2016-07-18T02:46:17.813Z,14.8
2016-07-18T03:01:11.515Z,14.8
2016-07-18T03:16:11.060Z,14.8
2016-07-18T03:31:19.338Z,14.8
2016-07-18T03:46:12.723Z,14.8
2016-07-18T04:01:11.094Z,14.8
2016-07-18T04:16:06.499Z,14.9
2016-07-18T04:31:17.759Z,14.9
2016-07-18T04:46:08.558Z,14.9
2016-07-18T05:01:11.469Z,15
2016-07-18T05:16:23.696Z,15.2
2016-07-18T05:31:11.487Z,15.3
2016-07-18T05:46:06.559Z,15.5
2016-07-18T06:01:11.195Z,15.8
2016-07-18T06:16:11.167Z,16.1
2016-07-18T06:31:11.169Z,16.5
2016-07-18T06:46:11.211Z,17.4
2016-07-18T07:01:11.593Z,17.6
2016-07-18T07:16:11.242Z,17.6
2016-07-18T07:31:11.215Z,17.8
2016-07-18T07:46:06.628Z,18.1
2016-07-18T08:01:06.628Z,18.1
2016-07-18T08:16:06.678Z,19.3
2016-07-18T08:31:11.245Z,21
2016-07-18T08:46:06.674Z,21.6
2016-07-18T09:01:06.663Z,22.1
2016-07-18T09:16:06.710Z,21.4
2016-07-18T09:31:08.689Z,21.7
2016-07-18T09:46:06.688Z,21.4
2016-07-18T10:01:11.833Z,21
2016-07-18T10:16:06.764Z,21
2016-07-18T10:31:06.719Z,21.7
2016-07-18T11:01:11.781Z,22.5
2016-07-18T11:16:13.009Z,22.1
2016-07-18T11:31:12.869Z,22.6
2016-07-18T11:46:11.808Z,23
2016-07-18T12:01:17.289Z,23.4
2016-07-18T12:16:20.346Z,23.6
2016-07-18T12:31:11.408Z,24
2016-07-18T12:46:17.960Z,23.9
2016-07-18T13:01:11.842Z,24.1
2016-07-18T13:16:23.984Z,24.3
2016-07-18T13:31:11.917Z,24.3
2016-07-18T13:46:13.143Z,24.4
2016-07-18T14:01:11.466Z,24.5
2016-07-18T14:16:25.453Z,24.4
2016-07-18T14:31:11.471Z,24.6
2016-07-18T14:46:06.862Z,24.7
2016-07-18T15:01:11.579Z,24.7
2016-07-18T15:16:11.473Z,24.7
2016-07-18T15:31:11.476Z,24.8
2016-07-18T15:46:06.870Z,24.8
2016-07-18T16:01:11.468Z,24.8
2016-07-18T16:16:13.090Z,24.7
2016-07-18T16:31:06.967Z,24.6
2016-07-18T16:46:08.900Z,24.7
2016-07-18T17:01:12.915Z,24.5
2016-07-18T17:16:13.235Z,24.3
2016-07-18T17:31:06.977Z,24.2
2016-07-18T17:46:06.930Z,24.1
2016-07-18T18:01:09.040Z,23.9
2016-07-18T18:16:06.950Z,23.7
2016-07-18T18:31:07.009Z,23.4
2016-07-18T18:46:06.998Z,23.2
2016-07-18T19:01:13.145Z,22.9
2016-07-18T19:16:07.003Z,22.6
2016-07-18T19:31:07.033Z,22.3
2016-07-18T19:46:07.001Z,22
2016-07-18T20:01:07.008Z,21.8
2016-07-18T20:16:09.019Z,21.5
2016-07-18T20:31:07.071Z,21.1
2016-07-18T21:01:07.066Z,19.6
2016-07-18T21:16:07.058Z,19.3
2016-07-18T21:46:28.053Z,18.6
2016-07-18T22:01:13.299Z,18.3
2016-07-18T22:16:11.714Z,18
2016-07-18T22:31:07.117Z,17.7
2016-07-18T22:46:11.698Z,17.5
2016-07-18T23:01:11.795Z,17.3
2016-07-18T23:16:11.999Z,17.1
2016-07-18T23:31:10.911Z,16.9
2016-07-18T23:46:11.716Z,16.7
